Time;durP1;ratioP1;P1;durP2;ratioP2;P2;SDS_P1;SDS_P2;PMS_P1;PMS_P2;Temp;Humidity;BMP_temperature;BMP_pressure;BME280_temperature;BME280_humidity;BME280_pressure;Samples;Min_cycle;Max_cycle;Signal;HPM_P1;HPM_P2
2023/06/27 00:01:49;;;;;;;5.70;2.43;;;20.00;88.30;;;;;;5931957;24;20532;-76
2023/06/27 00:04:19;;;;;;;4.43;2.73;;;20.00;88.60;;;;;;5939775;24;21061;-76
2023/06/27 00:06:46;;;;;;;4.03;2.47;;;20.00;88.30;;;;;;5941568;24;20925;-76
2023/06/27 00:09:15;;;;;;;3.77;2.37;;;20.00;88.60;;;;;;5948847;24;21050;-77
2023/06/27 00:11:43;;;;;;;6.20;2.90;;;19.90;88.80;;;;;;5942223;24;21013;-77
2023/06/27 00:14:10;;;;;;;4.60;2.67;;;20.00;88.60;;;;;;5942874;24;20517;-76
2023/06/27 00:16:38;;;;;;;2.73;2.50;;;19.90;88.00;;;;;;5932213;24;20475;-76
2023/06/27 00:19:05;;;;;;;3.10;2.60;;;19.90;88.60;;;;;;5943437;24;21099;-76
2023/06/27 00:21:32;;;;;;;5.20;2.67;;;19.90;88.40;;;;;;5938253;24;20436;-75
2023/06/27 00:24:00;;;;;;;4.20;2.67;;;19.80;87.80;;;;;;5939755;24;20800;-76
2023/06/27 00:26:28;;;;;;;4.37;2.70;;;19.80;88.50;;;;;;5936413;24;20471;-76
2023/06/27 00:28:56;;;;;;;3.30;1.97;;;19.80;88.50;;;;;;5939988;24;20843;-76
2023/06/27 00:31:24;;;;;;;2.87;2.40;;;19.80;88.80;;;;;;5944092;24;20446;-76
2023/06/27 00:33:51;;;;;;;3.03;2.30;;;19.80;89.60;;;;;;5948388;24;20439;-76
2023/06/27 00:36:18;;;;;;;3.40;2.37;;;19.80;89.40;;;;;;5939579;23;20932;-76
2023/06/27 00:38:45;;;;;;;2.50;2.30;;;19.80;89.60;;;;;;5937612;24;20472;-76
2023/06/27 00:41:12;;;;;;;3.70;2.40;;;19.80;90.00;;;;;;5942234;24;20547;-76
2023/06/27 00:43:40;;;;;;;5.23;2.10;;;19.80;90.00;;;;;;5934485;24;20500;-76
2023/06/27 00:46:11;;;;;;;3.47;2.10;;;19.80;90.10;;;;;;5940344;24;20541;-77
2023/06/27 00:48:38;;;;;;;3.87;2.70;;;19.80;90.30;;;;;;5946374;24;20443;-76
2023/06/27 00:51:08;;;;;;;4.53;2.60;;;19.80;90.40;;;;;;5938533;24;20558;-76
2023/06/27 00:53:35;;;;;;;4.93;2.80;;;19.80;90.50;;;;;;5946431;24;20991;-76
2023/06/27 00:56:03;;;;;;;4.80;2.50;;;19.70;90.60;;;;;;5937164;24;20531;-77
2023/06/27 00:58:30;;;;;;;4.83;2.60;;;19.70;90.60;;;;;;5935468;24;20837;-76
2023/06/27 01:01:00;;;;;;;3.17;2.23;;;19.70;90.60;;;;;;5945789;24;20471;-76
2023/06/27 01:03:31;;;;;;;5.60;2.73;;;19.60;90.70;;;;;;5942889;24;20451;-76
2023/06/27 01:05:59;;;;;;;4.87;3.13;;;19.60;90.80;;;;;;5944021;24;21055;-77
2023/06/27 01:08:32;;;;;;;4.40;3.00;;;19.60;90.70;;;;;;5947344;24;20958;-76
2023/06/27 01:11:04;;;;;;;4.60;3.20;;;19.60;91.00;;;;;;5944529;24;20455;-76
2023/06/27 01:13:38;;;;;;;3.67;3.00;;;19.60;90.80;;;;;;5936729;24;20498;-77
2023/06/27 01:16:06;;;;;;;3.23;2.63;;;19.60;90.50;;;;;;5942211;24;20549;-76
2023/06/27 01:18:40;;;;;;;5.13;2.87;;;19.70;90.50;;;;;;5944691;24;20474;-76
2023/06/27 01:21:09;;;;;;;5.80;3.03;;;19.70;90.20;;;;;;5944442;24;20470;-76
2023/06/27 01:23:50;;;;;;;4.70;3.20;;;19.70;90.10;;;;;;5938430;24;20442;-76
2023/06/27 01:26:17;;;;;;;2.90;2.43;;;19.60;90.10;;;;;;5936399;24;20464;-76
2023/06/27 01:28:44;;;;;;;3.73;2.67;;;19.60;90.10;;;;;;5944596;24;20754;-76
2023/06/27 01:31:17;;;;;;;6.63;3.20;;;19.60;90.20;;;;;;5944292;24;20466;-76
2023/06/27 01:33:51;;;;;;;5.57;3.30;;;19.60;90.00;;;;;;5936038;23;20446;-76
2023/06/27 01:36:24;;;;;;;5.03;2.90;;;19.60;89.90;;;;;;5928743;24;20547;-76
2023/06/27 01:38:59;;;;;;;3.70;2.33;;;19.60;89.90;;;;;;5946953;24;20439;-74
2023/06/27 01:41:28;;;;;;;4.50;2.37;;;19.60;90.10;;;;;;5947563;24;20478;-76
2023/06/27 01:43:58;;;;;;;3.27;2.00;;;19.60;90.10;;;;;;5936008;24;20529;-76
2023/06/27 01:46:25;;;;;;;2.57;2.10;;;19.50;90.00;;;;;;5936309;24;21034;-76
2023/06/27 01:48:53;;;;;;;7.10;2.93;;;19.50;90.10;;;;;;5935529;24;20443;-76
2023/06/27 01:51:20;;;;;;;4.33;2.43;;;19.50;90.20;;;;;;5930343;24;20444;-76
2023/06/27 01:53:48;;;;;;;2.90;1.90;;;19.40;90.40;;;;;;5927416;24;20447;-76
2023/06/27 01:56:16;;;;;;;3.53;2.17;;;19.40;90.70;;;;;;5940619;24;20983;-76
2023/06/27 01:58:43;;;;;;;2.30;2.10;;;19.40;91.00;;;;;;5939390;24;20530;-76
2023/06/27 02:01:10;;;;;;;3.30;2.50;;;19.30;91.00;;;;;;5938369;24;20443;-76
2023/06/27 02:03:37;;;;;;;2.60;1.80;;;19.20;91.10;;;;;;5941941;24;20443;-77
2023/06/27 02:06:05;;;;;;;3.13;2.37;;;19.20;91.10;;;;;;5940521;24;21021;-77
2023/06/27 02:08:32;;;;;;;3.10;2.10;;;19.20;91.20;;;;;;5943104;24;20432;-77
2023/06/27 02:10:58;;;;;;;3.90;2.20;;;19.20;91.40;;;;;;5941125;24;20450;-76
2023/06/27 02:13:27;;;;;;;3.77;2.40;;;19.10;91.40;;;;;;5942376;24;20880;-76
2023/06/27 02:15:54;;;;;;;3.10;2.20;;;19.10;91.40;;;;;;5941111;24;20541;-78
2023/06/27 02:18:21;;;;;;;3.80;2.77;;;19.10;91.50;;;;;;5937621;24;20468;-76
2023/06/27 02:20:49;;;;;;;6.90;2.60;;;19.00;91.50;;;;;;5937913;24;20501;-76
2023/06/27 02:23:16;;;;;;;4.63;3.13;;;19.00;91.40;;;;;;5934600;24;20574;-76
2023/06/27 02:25:43;;;;;;;4.73;3.03;;;19.00;91.60;;;;;;5943390;24;21002;-76
2023/06/27 02:28:11;;;;;;;3.40;2.97;;;19.00;91.70;;;;;;5946673;24;20521;-76
2023/06/27 02:30:39;;;;;;;3.13;2.83;;;19.00;91.90;;;;;;5943817;24;20874;-76
2023/06/27 02:33:06;;;;;;;3.57;3.20;;;19.10;91.50;;;;;;5950915;24;20438;-76
2023/06/27 02:35:33;;;;;;;3.40;2.80;;;19.10;91.50;;;;;;5942695;24;20498;-76
2023/06/27 02:38:00;;;;;;;6.33;2.97;;;19.10;91.30;;;;;;5939686;24;20449;-76
2023/06/27 02:40:28;;;;;;;4.60;2.40;;;19.10;91.20;;;;;;5941941;24;20477;-76
2023/06/27 02:42:55;;;;;;;3.53;2.43;;;19.10;91.10;;;;;;5938756;24;20522;-76
2023/06/27 02:45:23;;;;;;;3.50;2.10;;;19.00;91.30;;;;;;5930838;24;21384;-77
2023/06/27 02:47:52;;;;;;;5.40;2.13;;;19.10;91.40;;;;;;5935630;24;20830;-76
2023/06/27 02:50:19;;;;;;;3.93;2.10;;;18.90;91.40;;;;;;5943445;23;20522;-76
2023/06/27 02:52:46;;;;;;;3.37;2.20;;;19.00;91.70;;;;;;5939400;24;20522;-77
2023/06/27 02:55:13;;;;;;;3.77;2.30;;;19.00;91.70;;;;;;5934517;24;20459;-81
2023/06/27 02:57:41;;;;;;;4.03;2.60;;;18.90;91.90;;;;;;5934408;24;20451;-82
2023/06/27 03:00:10;;;;;;;3.37;2.03;;;18.80;92.00;;;;;;5939944;24;21001;-81
2023/06/27 03:02:36;;;;;;;4.40;2.27;;;18.80;92.30;;;;;;5946548;24;20847;-81
2023/06/27 03:05:06;;;;;;;4.13;2.20;;;18.70;92.50;;;;;;5952868;24;20827;-81
2023/06/27 03:07:33;;;;;;;6.40;2.53;;;18.60;92.70;;;;;;5947146;24;20490;-82
2023/06/27 03:10:00;;;;;;;3.67;2.33;;;18.60;93.00;;;;;;5955560;24;20525;-81
2023/06/27 03:12:27;;;;;;;4.33;2.50;;;18.60;93.00;;;;;;5952727;23;20502;-81
2023/06/27 03:14:54;;;;;;;3.63;2.40;;;18.50;92.80;;;;;;5943832;23;20859;-82
2023/06/27 03:17:21;;;;;;;4.73;2.40;;;18.50;93.00;;;;;;5946352;24;20428;-81
2023/06/27 03:19:48;;;;;;;3.30;2.20;;;18.60;93.00;;;;;;5946328;24;20551;-81
2023/06/27 03:22:16;;;;;;;3.00;2.70;;;18.50;93.00;;;;;;5952743;24;20454;-81
2023/06/27 03:24:43;;;;;;;4.03;2.53;;;18.50;93.00;;;;;;5967542;24;20474;-81
2023/06/27 03:27:11;;;;;;;4.30;2.40;;;18.50;92.80;;;;;;5967324;24;20435;-81
2023/06/27 03:29:38;;;;;;;2.80;2.43;;;18.50;92.90;;;;;;5971016;24;20438;-82
2023/06/27 03:32:05;;;;;;;5.43;2.70;;;18.50;93.00;;;;;;5945391;24;20498;-82
2023/06/27 03:34:33;;;;;;;4.10;2.67;;;18.50;92.90;;;;;;5944710;24;20474;-82
2023/06/27 03:37:00;;;;;;;2.67;2.47;;;18.50;93.10;;;;;;5944374;24;20466;-82
2023/06/27 03:39:28;;;;;;;3.63;2.90;;;18.50;93.20;;;;;;5935113;24;20538;-82
2023/06/27 03:41:56;;;;;;;3.60;3.30;;;18.50;93.10;;;;;;5939543;24;20498;-81
2023/06/27 03:44:22;;;;;;;3.93;3.40;;;18.50;93.20;;;;;;5941916;24;20521;-82
2023/06/27 03:46:49;;;;;;;4.30;3.67;;;18.50;93.40;;;;;;5941278;24;20540;-81
2023/06/27 03:49:16;;;;;;;4.43;3.10;;;18.50;93.60;;;;;;5942624;24;20448;-81
2023/06/27 03:51:43;;;;;;;9.07;3.53;;;18.40;93.50;;;;;;5954514;24;20761;-81
2023/06/27 03:54:10;;;;;;;3.70;3.20;;;18.40;93.60;;;;;;5963876;24;20438;-79
2023/06/27 03:56:39;;;;;;;4.57;3.03;;;18.40;93.60;;;;;;5973184;24;20500;-82
2023/06/27 03:59:06;;;;;;;5.07;3.10;;;18.40;93.70;;;;;;5972752;24;20447;-81
2023/06/27 04:01:34;;;;;;;5.17;2.83;;;18.50;93.90;;;;;;5932597;24;20447;-82
2023/06/27 04:04:01;;;;;;;5.00;3.30;;;18.40;93.70;;;;;;5933380;24;20494;-82
2023/06/27 04:06:28;;;;;;;4.27;2.57;;;18.50;93.80;;;;;;5936339;24;20475;-82
2023/06/27 04:08:57;;;;;;;4.53;3.30;;;18.40;93.70;;;;;;5925005;24;20443;-82
2023/06/27 04:11:24;;;;;;;5.73;3.50;;;18.40;93.90;;;;;;5931430;24;20518;-82
2023/06/27 04:13:53;;;;;;;3.83;3.07;;;18.40;94.00;;;;;;5938399;24;20462;-82
2023/06/27 04:16:20;;;;;;;4.40;2.93;;;18.40;93.90;;;;;;5939382;24;20467;-80
2023/06/27 04:18:48;;;;;;;4.40;2.80;;;18.40;93.90;;;;;;5934478;24;21019;-83
2023/06/27 04:21:14;;;;;;;5.70;2.33;;;18.30;93.90;;;;;;5927808;24;20470;-82
2023/06/27 04:23:41;;;;;;;4.00;2.97;;;18.30;94.00;;;;;;5929817;24;20537;-80
2023/06/27 04:26:14;;;;;;;3.73;2.83;;;18.30;93.90;;;;;;5929253;24;20976;-81
2023/06/27 04:28:43;;;;;;;5.57;2.43;;;18.30;94.10;;;;;;5931628;24;20443;-82
2023/06/27 04:31:11;;;;;;;3.03;2.20;;;18.30;94.10;;;;;;5935699;24;20524;-79
2023/06/27 04:33:39;;;;;;;3.23;2.30;;;18.30;94.00;;;;;;5930716;24;20439;-82
2023/06/27 04:36:06;;;;;;;3.13;2.00;;;18.30;94.10;;;;;;5931461;24;20978;-76
2023/06/27 04:38:37;;;;;;;3.80;2.13;;;18.30;94.00;;;;;;5935533;24;21038;-82
2023/06/27 04:41:05;;;;;;;3.30;2.10;;;18.30;94.10;;;;;;5930220;24;20998;-81
2023/06/27 04:43:34;;;;;;;2.60;2.27;;;18.30;94.30;;;;;;5936522;24;20450;-81
2023/06/27 04:46:01;;;;;;;2.83;2.27;;;18.30;94.30;;;;;;5939537;24;20485;-80
2023/06/27 04:48:29;;;;;;;4.00;2.07;;;18.40;94.30;;;;;;5938548;24;21191;-81
2023/06/27 04:51:01;;;;;;;2.20;2.00;;;18.40;94.50;;;;;;5940678;24;20518;-80
2023/06/27 04:53:28;;;;;;;4.17;2.23;;;18.40;94.30;;;;;;5930404;24;20455;-79
2023/06/27 04:55:55;;;;;;;4.23;2.53;;;18.50;94.20;;;;;;5928552;24;20492;-76
2023/06/27 04:58:22;;;;;;;3.17;2.17;;;18.50;94.10;;;;;;5922835;24;20450;-78
2023/06/27 05:00:51;;;;;;;3.63;2.00;;;18.50;94.00;;;;;;5930801;24;21026;-77
2023/06/27 05:03:20;;;;;;;4.30;2.07;;;18.50;94.00;;;;;;5928306;24;20940;-78
2023/06/27 05:05:49;;;;;;;3.73;2.10;;;18.50;93.90;;;;;;5932685;24;20541;-78
2023/06/27 05:08:17;;;;;;;2.83;2.00;;;18.50;94.00;;;;;;5936221;24;20439;-80
2023/06/27 05:10:44;;;;;;;2.80;1.80;;;18.50;93.90;;;;;;5929507;24;20533;-78
2023/06/27 05:13:11;;;;;;;3.50;2.17;;;18.50;93.90;;;;;;5930725;24;20509;-79
2023/06/27 05:15:38;;;;;;;4.70;2.30;;;18.60;93.90;;;;;;5937339;24;20483;-79
2023/06/27 05:18:25;;;;;;;3.30;2.10;;;18.60;93.80;;;;;;5933140;24;20442;-79
2023/06/27 05:20:54;;;;;;;4.10;2.10;;;18.70;93.80;;;;;;5929396;24;20447;-79
2023/06/27 05:23:22;;;;;;;4.00;2.00;;;18.70;93.70;;;;;;5934455;24;20928;-76
2023/06/27 05:25:49;;;;;;;4.23;2.20;;;18.70;93.70;;;;;;5932173;24;20479;-74
2023/06/27 05:28:16;;;;;;;3.10;2.60;;;18.80;93.60;;;;;;5929555;24;20455;-75
2023/06/27 05:30:44;;;;;;;2.70;2.17;;;18.80;93.50;;;;;;5930464;23;21010;-75
2023/06/27 05:33:10;;;;;;;3.37;1.80;;;18.80;93.40;;;;;;5920264;24;20439;-74
2023/06/27 05:35:38;;;;;;;4.13;2.47;;;18.80;93.40;;;;;;5929632;24;20467;-76
2023/06/27 05:38:07;;;;;;;3.63;2.10;;;18.80;93.90;;;;;;5926018;24;20453;-76
2023/06/27 05:40:34;;;;;;;3.20;2.47;;;18.80;93.60;;;;;;5935849;24;20784;-76
2023/06/27 05:43:01;;;;;;;4.57;2.40;;;18.80;93.70;;;;;;5931211;24;20443;-76
2023/06/27 05:45:28;;;;;;;4.50;2.50;;;18.90;93.90;;;;;;5934886;24;20454;-76
2023/06/27 05:47:55;;;;;;;5.30;2.17;;;19.00;93.30;;;;;;5933385;24;20443;-76
2023/06/27 05:50:22;;;;;;;5.40;2.00;;;19.10;92.70;;;;;;5933159;24;20447;-78
2023/06/27 05:52:49;;;;;;;3.60;2.37;;;19.20;93.00;;;;;;5935110;24;20964;-75
2023/06/27 05:55:17;;;;;;;3.47;1.97;;;19.30;93.00;;;;;;5937567;24;20451;-73
2023/06/27 05:57:45;;;;;;;3.03;2.07;;;19.40;92.80;;;;;;5933794;24;20994;-74
2023/06/27 06:00:14;;;;;;;3.87;2.20;;;19.60;92.60;;;;;;5932475;24;20538;-75
2023/06/27 06:02:43;;;;;;;2.50;2.30;;;19.60;92.30;;;;;;5934257;24;20443;-75
2023/06/27 06:05:11;;;;;;;2.13;1.93;;;19.70;92.10;;;;;;5925458;24;20877;-75
2023/06/27 06:07:43;;;;;;;6.30;3.30;;;19.70;92.10;;;;;;5934170;24;20462;-74
2023/06/27 06:10:11;;;;;;;5.17;3.50;;;19.70;92.40;;;;;;5935295;24;20556;-74
2023/06/27 06:12:40;;;;;;;4.37;3.30;;;19.70;91.90;;;;;;5935469;24;20435;-74
2023/06/27 06:15:07;;;;;;;3.40;2.10;;;19.70;92.00;;;;;;5935853;24;20492;-73
2023/06/27 06:17:35;;;;;;;7.00;2.70;;;19.70;91.80;;;;;;5935224;24;20447;-74
2023/06/27 06:20:03;;;;;;;3.47;2.10;;;19.70;92.10;;;;;;5938750;24;20470;-73
2023/06/27 06:22:31;;;;;;;4.50;3.00;;;19.70;92.00;;;;;;5937853;24;20443;-74
2023/06/27 06:24:58;;;;;;;2.50;2.30;;;19.70;91.90;;;;;;5928761;24;20562;-75
2023/06/27 06:27:25;;;;;;;4.23;2.43;;;19.80;92.30;;;;;;5934851;24;20568;-73
2023/06/27 06:29:54;;;;;;;6.20;5.00;;;19.80;92.60;;;;;;5935264;24;20499;-71
2023/06/27 06:32:21;;;;;;;3.80;2.33;;;19.90;93.20;;;;;;5931671;24;20436;-72
2023/06/27 06:34:48;;;;;;;4.43;2.60;;;20.00;92.40;;;;;;5935091;24;20586;-72
2023/06/27 06:37:15;;;;;;;3.17;2.90;;;20.10;91.90;;;;;;5933490;24;20451;-73
2023/06/27 06:39:42;;;;;;;5.00;2.10;;;20.10;91.70;;;;;;5937535;24;20559;-73
2023/06/27 06:42:10;;;;;;;5.63;2.33;;;20.20;91.20;;;;;;5936341;24;20491;-72
2023/06/27 06:44:36;;;;;;;2.27;2.03;;;20.40;91.70;;;;;;5934049;24;20549;-73
2023/06/27 06:47:06;;;;;;;2.10;1.83;;;20.50;90.80;;;;;;5931357;24;20794;-72
2023/06/27 06:49:33;;;;;;;2.97;1.93;;;20.40;90.50;;;;;;5932186;24;20440;-71
2023/06/27 06:52:00;;;;;;;3.20;2.00;;;20.40;90.90;;;;;;5930959;24;20938;-71
2023/06/27 06:54:27;;;;;;;2.87;1.97;;;20.50;91.10;;;;;;5933815;24;20547;-71
2023/06/27 06:56:54;;;;;;;3.97;2.20;;;20.70;91.20;;;;;;5934932;24;20457;-71
2023/06/27 06:59:21;;;;;;;4.03;2.53;;;21.00;90.50;;;;;;5934027;24;20439;-72
2023/06/27 07:01:49;;;;;;;4.97;2.07;;;21.00;90.00;;;;;;5933366;24;20532;-77
2023/06/27 07:04:17;;;;;;;3.20;1.80;;;21.10;90.20;;;;;;5931772;24;20465;-78
2023/06/27 07:06:44;;;;;;;2.60;1.80;;;21.10;88.80;;;;;;5933664;24;20507;-77
2023/06/27 07:09:11;;;;;;;3.97;2.27;;;21.10;89.90;;;;;;5936178;24;20447;-78
2023/06/27 07:11:38;;;;;;;2.80;2.17;;;21.10;89.60;;;;;;5934986;24;20518;-76
2023/06/27 07:14:05;;;;;;;2.53;2.10;;;21.20;90.00;;;;;;5929255;24;20985;-77
2023/06/27 07:16:32;;;;;;;2.60;1.77;;;21.20;89.10;;;;;;5929625;24;20509;-78
2023/06/27 07:19:02;;;;;;;2.40;1.80;;;21.40;88.90;;;;;;5938687;24;20517;-76
2023/06/27 07:21:31;;;;;;;5.10;2.20;;;21.50;86.90;;;;;;5937968;24;20447;-77
2023/06/27 07:23:58;;;;;;;4.33;1.70;;;21.50;86.40;;;;;;5936581;24;20981;-78
2023/06/27 07:26:26;;;;;;;3.10;1.80;;;21.60;86.80;;;;;;5936923;24;20561;-78
2023/06/27 07:28:52;;;;;;;2.10;1.80;;;21.70;86.40;;;;;;5936098;24;20507;-77
2023/06/27 07:31:20;;;;;;;2.47;1.80;;;21.70;86.30;;;;;;5929191;24;20505;-77
2023/06/27 07:33:47;;;;;;;4.73;1.97;;;21.80;85.90;;;;;;5935154;24;20546;-78
2023/06/27 07:36:14;;;;;;;9.53;2.77;;;21.80;84.70;;;;;;5937861;24;20550;-76
2023/06/27 07:38:43;;;;;;;3.03;2.10;;;21.80;85.50;;;;;;5929361;24;20443;-78
2023/06/27 07:41:10;;;;;;;3.13;1.80;;;21.70;83.80;;;;;;5933470;24;20971;-78
2023/06/27 07:43:37;;;;;;;2.67;1.73;;;21.70;84.50;;;;;;5933127;24;20467;-78
2023/06/27 07:46:04;;;;;;;3.30;1.83;;;21.70;85.30;;;;;;5927859;24;20851;-78
2023/06/27 07:48:31;;;;;;;2.43;1.80;;;21.70;83.90;;;;;;5922995;24;20535;-78
2023/06/27 07:50:58;;;;;;;2.30;1.80;;;21.80;85.60;;;;;;5929000;24;20482;-78
2023/06/27 07:53:25;;;;;;;3.17;2.27;;;21.90;84.90;;;;;;5920561;24;20869;-73
2023/06/27 07:55:54;;;;;;;4.20;2.00;;;22.10;86.10;;;;;;5915529;24;20442;-78
2023/06/27 07:58:23;;;;;;;3.57;2.07;;;22.30;85.30;;;;;;5931824;24;20652;-78
2023/06/27 08:00:51;;;;;;;2.93;2.23;;;22.50;85.20;;;;;;5921794;24;20450;-81
2023/06/27 08:03:18;;;;;;;4.20;2.07;;;22.70;84.80;;;;;;5921490;24;20526;-78
2023/06/27 08:05:45;;;;;;;4.00;2.10;;;22.60;83.50;;;;;;5928162;24;20458;-78
2023/06/27 08:08:12;;;;;;;3.30;1.90;;;22.60;83.70;;;;;;5929471;24;21002;-78
2023/06/27 08:10:41;;;;;;;4.30;1.97;;;22.80;83.90;;;;;;5929072;24;20470;-75
2023/06/27 08:13:10;;;;;;;2.57;2.17;;;22.80;83.60;;;;;;5928597;24;20807;-75
2023/06/27 08:15:37;;;;;;;4.97;2.40;;;22.70;84.50;;;;;;5936347;24;20449;-77
2023/06/27 08:18:04;;;;;;;4.80;2.80;;;22.80;84.40;;;;;;5931597;24;20448;-78
2023/06/27 08:20:31;;;;;;;3.37;2.37;;;22.90;84.20;;;;;;5935356;24;20443;-77
2023/06/27 08:22:59;;;;;;;4.30;2.40;;;23.10;83.00;;;;;;5917090;24;20443;-87
2023/06/27 08:25:26;;;;;;;3.90;2.20;;;23.30;83.10;;;;;;5925790;24;20446;-76
2023/06/27 08:27:52;;;;;;;2.60;1.87;;;23.60;82.10;;;;;;5928853;24;20581;-83
2023/06/27 08:30:21;;;;;;;45.83;12.30;;;23.30;81.50;;;;;;5926933;24;20562;-88
2023/06/27 08:32:48;;;;;;;3.23;1.70;;;23.40;81.80;;;;;;5933978;24;20451;-75
2023/06/27 08:35:15;;;;;;;4.27;2.20;;;23.50;81.10;;;;;;5938602;24;20451;-88
2023/06/27 08:37:42;;;;;;;5.00;2.00;;;23.50;79.60;;;;;;5935962;24;20539;-85
2023/06/27 08:40:10;;;;;;;2.97;1.90;;;23.40;79.40;;;;;;5931206;24;20464;-77
2023/06/27 08:42:37;;;;;;;3.47;1.83;;;23.30;79.10;;;;;;5936946;24;20961;-78
2023/06/27 08:45:06;;;;;;;6.20;1.80;;;23.30;78.70;;;;;;5937514;24;21062;-77
2023/06/27 08:47:37;;;;;;;3.20;1.70;;;23.30;78.60;;;;;;5931266;24;20477;-87
2023/06/27 08:50:06;;;;;;;4.20;2.07;;;23.60;77.60;;;;;;5930866;24;20467;-83
2023/06/27 08:52:38;;;;;;;6.73;2.10;;;23.40;76.90;;;;;;5935623;24;20443;-85
2023/06/27 08:55:13;;;;;;;8.30;2.63;;;23.50;78.20;;;;;;5938503;24;20454;-85
2023/06/27 08:57:42;;;;;;;4.37;2.10;;;23.60;78.40;;;;;;5937765;24;20435;-85
2023/06/27 09:00:12;;;;;;;2.67;1.90;;;23.90;78.50;;;;;;5931711;24;20443;-86
2023/06/27 09:02:43;;;;;;;2.57;1.97;;;24.20;77.20;;;;;;5919286;24;20444;-86
2023/06/27 09:05:11;;;;;;;2.93;1.93;;;24.10;75.70;;;;;;5926137;24;20466;-86
2023/06/27 09:07:38;;;;;;;2.97;2.10;;;24.10;75.70;;;;;;5930843;24;20561;-86
2023/06/27 09:10:08;;;;;;;2.47;2.27;;;24.10;76.30;;;;;;5929977;24;20847;-86
2023/06/27 09:12:35;;;;;;;6.30;1.90;;;24.10;74.20;;;;;;5925680;24;20799;-85
2023/06/27 09:15:02;;;;;;;2.50;2.30;;;24.00;75.50;;;;;;5927367;24;20529;-86
2023/06/27 09:17:29;;;;;;;4.30;2.27;;;24.20;74.90;;;;;;5938141;24;20435;-87
2023/06/27 09:19:58;;;;;;;2.80;2.33;;;24.30;74.80;;;;;;5939549;24;20493;-86
2023/06/27 09:22:25;;;;;;;3.63;2.60;;;24.60;75.10;;;;;;5935265;24;20888;-87
2023/06/27 09:25:10;;;;;;;6.60;3.53;;;24.60;74.50;;;;;;5920021;24;21530;-86
2023/06/27 09:27:38;;;;;;;3.40;2.40;;;24.60;75.20;;;;;;5929304;24;20466;-87
2023/06/27 09:30:07;;;;;;;4.20;2.53;;;24.70;73.80;;;;;;5943602;24;20868;-86
2023/06/27 09:32:34;;;;;;;3.00;2.40;;;24.30;73.20;;;;;;5941744;24;20533;-85
2023/06/27 09:35:04;;;;;;;4.30;2.30;;;23.90;73.10;;;;;;5941525;24;20460;-86
2023/06/27 09:37:32;;;;;;;3.70;2.37;;;23.40;73.80;;;;;;5943081;24;20506;-86
2023/06/27 09:39:59;;;;;;;3.27;1.80;;;23.30;75.80;;;;;;5934908;24;20544;-86
2023/06/27 09:42:30;;;;;;;3.60;2.23;;;23.50;77.60;;;;;;5948115;24;20525;-80
2023/06/27 09:45:13;;;;;;;4.70;2.57;;;23.60;75.70;;;;;;5938438;24;20543;-86
2023/06/27 09:47:42;;;;;;;3.00;2.33;;;23.70;77.00;;;;;;5936616;24;20469;-85
2023/06/27 09:50:11;;;;;;;3.40;2.60;;;23.80;75.90;;;;;;5936547;24;20518;-85
2023/06/27 09:52:38;;;;;;;2.97;2.10;;;23.80;75.60;;;;;;5934654;24;20447;-86
2023/06/27 09:55:16;;;;;;;2.70;1.97;;;23.80;76.00;;;;;;5930875;24;20509;-86
2023/06/27 09:57:44;;;;;;;2.27;2.03;;;23.90;74.70;;;;;;5936141;24;20467;-86
2023/06/27 10:00:12;;;;;;;4.40;2.07;;;23.70;74.00;;;;;;5935947;24;20448;-85
2023/06/27 10:02:39;;;;;;;3.30;2.43;;;23.70;74.80;;;;;;5938727;24;20476;-84
2023/06/27 10:05:06;;;;;;;3.53;2.20;;;23.80;75.50;;;;;;5933709;24;20521;-85
2023/06/27 10:07:35;;;;;;;2.87;2.30;;;24.00;74.40;;;;;;5928020;24;20509;-83
2023/06/27 10:10:02;;;;;;;3.53;2.70;;;24.20;75.90;;;;;;5933788;24;20436;-85
2023/06/27 10:12:30;;;;;;;2.23;2.00;;;24.40;74.50;;;;;;5932314;24;20837;-84
2023/06/27 10:14:57;;;;;;;4.37;2.77;;;24.60;74.30;;;;;;5939407;24;20599;-86
2023/06/27 10:17:25;;;;;;;4.97;2.30;;;24.80;73.10;;;;;;5955110;24;20465;-81
2023/06/27 10:19:53;;;;;;;2.83;2.10;;;25.00;73.50;;;;;;5946979;24;20765;-84
2023/06/27 10:22:25;;;;;;;3.97;2.40;;;25.30;72.30;;;;;;5941246;24;20521;-83
2023/06/27 10:24:58;;;;;;;2.63;1.80;;;25.10;71.60;;;;;;5938688;24;20863;-85
2023/06/27 10:27:26;;;;;;;3.07;1.97;;;25.00;72.00;;;;;;5937265;24;20482;-84
2023/06/27 10:29:53;;;;;;;2.70;2.10;;;24.90;72.60;;;;;;5935445;24;20534;-83
2023/06/27 10:32:20;;;;;;;3.10;2.30;;;24.90;72.50;;;;;;5942246;24;20442;-84
2023/06/27 10:34:47;;;;;;;3.67;2.23;;;25.00;73.20;;;;;;5939129;24;20474;-86
2023/06/27 10:37:23;;;;;;;5.40;2.10;;;25.40;71.60;;;;;;5944803;24;20465;-85
2023/06/27 10:40:00;;;;;;;4.57;2.20;;;25.80;71.80;;;;;;5935568;24;20447;-71
2023/06/27 10:42:29;;;;;;;2.33;1.90;;;25.50;69.80;;;;;;5937120;24;20475;-71
2023/06/27 10:45:06;;;;;;;2.70;2.00;;;25.10;70.50;;;;;;5940041;24;20498;-70
2023/06/27 10:47:35;;;;;;;5.43;2.70;;;25.10;72.10;;;;;;5935862;24;20525;-71
2023/06/27 10:50:11;;;;;;;2.60;2.07;;;25.20;70.90;;;;;;5943174;24;20451;-70
2023/06/27 10:52:39;;;;;;;2.47;2.27;;;25.00;69.80;;;;;;5936078;24;20515;-71
2023/06/27 10:55:21;;;;;;;13.30;2.90;;;24.80;70.10;;;;;;5936478;24;21122;-72
2023/06/27 10:57:51;;;;;;;3.00;2.20;;;24.60;69.10;;;;;;5930203;24;20441;-70
2023/06/27 11:00:25;;;;;;;6.23;2.27;;;24.30;71.00;;;;;;5939764;24;20453;-71
2023/06/27 11:02:54;;;;;;;2.63;2.10;;;24.40;70.90;;;;;;5931583;24;20470;-71
2023/06/27 11:05:37;;;;;;;3.53;2.10;;;24.50;71.50;;;;;;5922641;24;21260;-71
2023/06/27 11:08:04;;;;;;;2.57;2.10;;;24.50;71.50;;;;;;5931804;24;20586;-71
2023/06/27 11:10:34;;;;;;;3.37;2.23;;;24.50;71.30;;;;;;5935196;24;20446;-78
2023/06/27 11:13:17;;;;;;;4.20;2.13;;;24.80;70.90;;;;;;5930063;24;20461;-83
2023/06/27 11:15:46;;;;;;;4.80;2.50;;;24.80;69.30;;;;;;5926943;24;20528;-82
2023/06/27 11:18:15;;;;;;;4.03;2.37;;;24.70;71.70;;;;;;5937377;24;21108;-80
2023/06/27 11:20:42;;;;;;;2.10;1.87;;;24.60;70.60;;;;;;5935655;24;21072;-80
2023/06/27 11:23:10;;;;;;;3.17;1.80;;;24.80;69.20;;;;;;5936651;24;20473;-84
2023/06/27 11:25:40;;;;;;;1.80;1.70;;;25.00;69.40;;;;;;5938591;24;20441;-82
2023/06/27 11:28:07;;;;;;;2.63;2.00;;;25.20;69.80;;;;;;5932373;24;20479;-83
2023/06/27 11:30:35;;;;;;;2.70;2.00;;;25.50;69.00;;;;;;5937716;24;20477;-88
2023/06/27 11:33:03;;;;;;;2.20;2.00;;;25.70;68.30;;;;;;5922651;24;20462;-83
2023/06/27 11:35:31;;;;;;;2.30;1.70;;;25.80;67.90;;;;;;5927120;24;20446;-80
2023/06/27 11:37:59;;;;;;;3.27;1.90;;;25.60;67.20;;;;;;5943465;24;20446;-76
2023/06/27 11:40:27;;;;;;;2.93;1.97;;;25.00;67.90;;;;;;5938113;24;20447;-75
2023/06/27 11:43:02;;;;;;;2.60;2.07;;;25.20;69.20;;;;;;5932256;24;20461;-78
2023/06/27 11:45:31;;;;;;;4.43;2.10;;;25.40;69.70;;;;;;5930289;24;20447;-79
2023/06/27 11:47:58;;;;;;;4.17;2.20;;;25.70;69.20;;;;;;5939968;24;20499;-79
2023/06/27 11:50:25;;;;;;;2.67;1.93;;;25.80;67.50;;;;;;5933521;24;20558;-78
2023/06/27 11:52:53;;;;;;;3.07;2.40;;;25.90;67.20;;;;;;5947179;23;20548;-79
2023/06/27 11:55:20;;;;;;;6.83;2.40;;;25.70;67.30;;;;;;5952656;24;20465;-79
2023/06/27 11:57:48;;;;;;;2.87;2.30;;;25.80;66.50;;;;;;5938520;24;20439;-86
2023/06/27 12:00:19;;;;;;;4.10;2.23;;;25.50;68.00;;;;;;5945882;24;20445;-86
2023/06/27 12:02:50;;;;;;;3.50;1.93;;;25.50;67.60;;;;;;5942951;24;20538;-85
2023/06/27 12:05:18;;;;;;;3.40;1.90;;;25.60;67.30;;;;;;5953144;24;20546;-78
2023/06/27 12:08:05;;;;;;;2.30;2.10;;;25.90;65.80;;;;;;5936617;24;20478;-79
2023/06/27 12:10:34;;;;;;;2.07;1.77;;;26.20;66.90;;;;;;5935458;24;20447;-83
2023/06/27 12:13:03;;;;;;;4.00;2.00;;;26.40;66.30;;;;;;5941672;23;20479;-83
2023/06/27 12:15:31;;;;;;;2.87;2.07;;;26.70;65.20;;;;;;5954007;24;20514;-84
2023/06/27 12:18:00;;;;;;;3.07;2.20;;;26.80;65.60;;;;;;5938287;24;20449;-86
2023/06/27 12:20:28;;;;;;;2.37;1.83;;;26.80;63.90;;;;;;5939806;24;20458;-83
2023/06/27 12:22:55;;;;;;;2.57;2.37;;;26.40;64.50;;;;;;5936550;24;20838;-75
2023/06/27 12:25:22;;;;;;;3.20;2.20;;;26.40;65.10;;;;;;5940376;24;20449;-76
2023/06/27 12:27:49;;;;;;;3.20;2.17;;;26.40;65.10;;;;;;5926839;24;20497;-75
2023/06/27 12:30:17;;;;;;;3.30;2.30;;;26.10;65.10;;;;;;5938701;24;20965;-76
2023/06/27 12:32:45;;;;;;;2.30;2.10;;;25.90;65.20;;;;;;5926819;23;20655;-73
2023/06/27 12:35:17;;;;;;;3.20;2.83;;;26.20;64.90;;;;;;5932588;24;20443;-75
2023/06/27 12:37:45;;;;;;;6.93;2.80;;;26.20;65.00;;;;;;5944179;24;20488;-81
2023/06/27 12:40:12;;;;;;;2.90;2.10;;;26.70;63.20;;;;;;5935389;24;20914;-79
2023/06/27 12:42:41;;;;;;;3.87;2.10;;;26.80;63.20;;;;;;5928703;24;20577;-81
2023/06/27 12:45:08;;;;;;;2.70;2.20;;;27.00;62.40;;;;;;5924760;23;20517;-82
2023/06/27 12:47:41;;;;;;;2.90;2.03;;;27.10;62.00;;;;;;5932491;24;20467;-82
2023/06/27 12:50:10;;;;;;;2.60;2.37;;;27.40;61.50;;;;;;5935023;24;20950;-82
2023/06/27 12:52:37;;;;;;;3.10;2.37;;;26.90;62.40;;;;;;5932253;24;20462;-83